Time;durP1;ratioP1;P1;durP2;ratioP2;P2;SDS_P1;SDS_P2;PMS_P1;PMS_P2;Temp;Humidity;BMP_temperature;BMP_pressure;BME280_temperature;BME280_humidity;BME280_pressure;Samples;Min_cycle;Max_cycle;Signal;HPM_P1;HPM_P2
2022/06/13 00:00:26;;;;;;;10.30;3.72;;;15.80;98.80;;;;;;4948616;28;20464;-34
2022/06/13 00:02:52;;;;;;;8.35;3.45;;;15.70;98.80;;;;;;4947978;29;20430;-34
2022/06/13 00:05:18;;;;;;;8.13;3.15;;;15.70;99.00;;;;;;4949244;29;20024;-34
2022/06/13 00:07:44;;;;;;;8.23;3.50;;;15.70;99.00;;;;;;4947560;29;20102;-35
2022/06/13 00:10:11;;;;;;;9.27;3.30;;;15.70;99.10;;;;;;4948340;28;20031;-35
2022/06/13 00:12:38;;;;;;;7.90;3.53;;;15.70;99.20;;;;;;4948543;28;20027;-34
2022/06/13 00:15:05;;;;;;;9.63;3.80;;;15.70;99.30;;;;;;4948672;29;20081;-35
2022/06/13 00:17:31;;;;;;;8.07;3.47;;;15.70;99.30;;;;;;4947395;28;20015;-35
2022/06/13 00:19:56;;;;;;;10.40;2.97;;;15.70;99.40;;;;;;4948676;29;20486;-35
2022/06/13 00:22:22;;;;;;;7.70;3.60;;;15.60;99.40;;;;;;4947943;29;20026;-34
2022/06/13 00:24:47;;;;;;;9.27;3.50;;;15.60;99.50;;;;;;4947957;29;20046;-34
2022/06/13 00:27:13;;;;;;;10.90;3.50;;;15.50;99.60;;;;;;4948090;29;20035;-34
2022/06/13 00:29:39;;;;;;;8.02;4.00;;;15.50;99.70;;;;;;4947546;29;20030;-34
2022/06/13 00:32:05;;;;;;;8.18;3.40;;;15.50;99.80;;;;;;4948452;28;20031;-34
2022/06/13 00:34:31;;;;;;;9.82;4.57;;;15.50;99.90;;;;;;4948248;28;20517;-36
2022/06/13 00:36:57;;;;;;;8.70;3.90;;;15.50;99.90;;;;;;4947630;28;20133;-33
2022/06/13 00:39:23;;;;;;;12.38;4.20;;;15.50;99.90;;;;;;4947883;29;20523;-34
2022/06/13 00:41:49;;;;;;;9.30;4.13;;;15.50;99.90;;;;;;4948335;29;20459;-34
2022/06/13 00:44:30;;;;;;;10.05;4.32;;;15.50;99.90;;;;;;4947384;28;20035;-34
2022/06/13 00:46:56;;;;;;;9.50;3.97;;;15.50;99.90;;;;;;4948117;28;20050;-34
2022/06/13 00:49:30;;;;;;;7.85;3.55;;;15.50;99.90;;;;;;4947513;28;20075;-34
2022/06/13 00:52:30;;;;;;;10.07;3.67;;;15.50;99.90;;;;;;4928794;29;20031;-34
2022/06/13 00:54:56;;;;;;;5.47;3.42;;;15.50;99.90;;;;;;4947635;28;20130;-34
2022/06/13 00:57:26;;;;;;;9.85;3.75;;;15.50;99.90;;;;;;4947647;28;20118;-33
2022/06/13 00:59:56;;;;;;;8.60;3.65;;;15.40;99.90;;;;;;4947181;28;20033;-33
2022/06/13 01:02:22;;;;;;;9.70;4.18;;;15.40;99.90;;;;;;4948058;29;20487;-34
2022/06/13 01:04:51;;;;;;;6.60;3.45;;;15.40;99.90;;;;;;4946936;29;20038;-34
2022/06/13 01:07:18;;;;;;;8.88;3.30;;;15.50;99.90;;;;;;4947679;28;20521;-34
2022/06/13 01:12:29;;;;;;;7.13;3.42;;;15.50;99.90;;;;;;4947142;29;20049;-34
2022/06/13 01:15:09;;;;;;;8.98;3.70;;;15.60;99.90;;;;;;4947857;28;20105;-34
2022/06/13 01:17:58;;;;;;;8.77;4.00;;;15.60;99.90;;;;;;4947475;29;20027;-34
2022/06/13 01:20:33;;;;;;;7.68;3.83;;;15.70;99.90;;;;;;4946484;29;20036;-34
2022/06/13 01:23:20;;;;;;;7.82;3.85;;;15.70;99.90;;;;;;4929193;29;20050;-34
2022/06/13 01:26:07;;;;;;;8.48;3.88;;;15.70;99.90;;;;;;4945945;29;20038;-34
2022/06/13 01:28:57;;;;;;;9.90;4.22;;;15.70;99.90;;;;;;4948378;28;20032;-34
2022/06/13 01:31:50;;;;;;;10.30;4.00;;;15.70;99.90;;;;;;4947311;28;20030;-34
2022/06/13 01:34:18;;;;;;;9.00;4.20;;;15.70;99.90;;;;;;4946944;29;20024;-34
2022/06/13 01:37:01;;;;;;;10.38;4.03;;;15.80;99.90;;;;;;4947514;29;20558;-34
2022/06/13 01:39:39;;;;;;;6.93;3.67;;;15.80;99.90;;;;;;4946831;28;20057;-40
2022/06/13 01:42:49;;;;;;;9.93;3.88;;;15.80;99.90;;;;;;4947881;29;20035;-34
2022/06/13 01:45:14;;;;;;;7.22;3.35;;;15.80;99.90;;;;;;4947150;29;20042;-33
2022/06/13 01:47:55;;;;;;;9.23;3.97;;;15.80;99.90;;;;;;4946641;28;20035;-34
2022/06/13 01:50:38;;;;;;;8.98;4.07;;;15.70;99.90;;;;;;4947145;29;20407;-34
2022/06/13 01:53:22;;;;;;;8.60;3.88;;;15.70;99.90;;;;;;4947991;29;20043;-34
2022/06/13 01:55:58;;;;;;;8.18;4.10;;;15.70;99.90;;;;;;4946566;28;20044;-33
2022/06/13 01:58:52;;;;;;;8.88;4.22;;;15.70;99.90;;;;;;4947375;28;20032;-35
2022/06/13 02:01:34;;;;;;;8.07;3.92;;;15.80;99.90;;;;;;4938447;28;20031;-35
2022/06/13 02:04:00;;;;;;;7.23;3.87;;;15.80;99.90;;;;;;4950901;28;20023;-35
2022/06/13 02:06:27;;;;;;;10.07;4.00;;;15.80;99.90;;;;;;4949655;28;20345;-34
2022/06/13 02:09:07;;;;;;;6.53;3.28;;;15.80;99.90;;;;;;4950361;28;20066;-33
2022/06/13 02:11:40;;;;;;;8.63;3.53;;;15.80;99.90;;;;;;4950522;28;20026;-35
2022/06/13 02:14:15;;;;;;;7.72;3.83;;;15.80;99.90;;;;;;4950774;28;20023;-34
2022/06/13 02:16:57;;;;;;;10.00;3.90;;;15.80;99.90;;;;;;4950032;29;20108;-34
2022/06/13 02:19:45;;;;;;;8.60;3.55;;;15.80;99.90;;;;;;4950794;28;20491;-34
2022/06/13 02:22:22;;;;;;;9.45;4.03;;;15.80;99.90;;;;;;4946700;29;20219;-34
2022/06/13 02:24:58;;;;;;;6.85;3.90;;;15.70;99.90;;;;;;4951238;29;20038;-34
2022/06/13 02:27:31;;;;;;;9.80;4.47;;;15.70;99.90;;;;;;4949870;28;20054;-34
2022/06/13 02:30:04;;;;;;;10.10;4.38;;;15.80;99.90;;;;;;4950701;28;20023;-33
2022/06/13 02:32:36;;;;;;;7.82;4.10;;;15.80;99.90;;;;;;4949898;28;20407;-35
2022/06/13 02:35:07;;;;;;;9.32;4.47;;;15.80;99.90;;;;;;4951292;28;20379;-34
2022/06/13 02:38:07;;;;;;;9.38;4.60;;;15.80;99.90;;;;;;4949836;29;20050;-33
2022/06/13 02:40:39;;;;;;;9.48;4.28;;;15.80;99.90;;;;;;4931066;29;20063;-34
2022/06/13 02:43:23;;;;;;;10.57;4.40;;;15.80;99.90;;;;;;4946763;29;20507;-34
2022/06/13 02:46:00;;;;;;;12.30;4.38;;;15.80;99.90;;;;;;4930968;29;20042;-34
2022/06/13 02:48:40;;;;;;;11.95;4.22;;;15.80;99.90;;;;;;4947067;29;20138;-33
2022/06/13 02:51:24;;;;;;;8.65;4.55;;;15.80;99.90;;;;;;4950658;28;20019;-33
2022/06/13 02:53:52;;;;;;;8.77;4.05;;;15.80;99.90;;;;;;4950358;29;20035;-34
2022/06/13 02:56:33;;;;;;;9.07;4.70;;;15.80;99.90;;;;;;4949784;28;20051;-34
2022/06/13 02:59:16;;;;;;;8.35;4.15;;;15.80;99.90;;;;;;4949875;29;20031;-34
2022/06/13 03:01:46;;;;;;;9.15;4.53;;;15.70;99.90;;;;;;4950623;28;20027;-35
2022/06/13 03:04:20;;;;;;;9.73;5.18;;;15.70;99.90;;;;;;4949776;29;20021;-34
2022/06/13 03:07:06;;;;;;;9.75;5.20;;;15.70;99.90;;;;;;4950244;29;20039;-33
2022/06/13 03:09:48;;;;;;;10.95;5.40;;;15.60;99.90;;;;;;4948953;29;20505;-34
2022/06/13 03:12:23;;;;;;;12.40;5.38;;;15.60;99.90;;;;;;4949459;28;20043;-34
2022/06/13 03:15:09;;;;;;;9.85;5.53;;;15.60;99.90;;;;;;4945949;28;20035;-34
2022/06/13 03:17:45;;;;;;;9.02;4.97;;;15.60;99.90;;;;;;4949615;28;20026;-34
2022/06/13 03:20:19;;;;;;;9.90;4.93;;;15.60;99.90;;;;;;4949785;29;20031;-35
2022/06/13 03:22:44;;;;;;;9.90;5.22;;;15.50;99.90;;;;;;4949756;28;20035;-35
2022/06/13 03:25:17;;;;;;;10.85;5.22;;;15.50;99.90;;;;;;4949772;29;20028;-33
2022/06/13 03:28:13;;;;;;;11.30;5.47;;;15.50;99.90;;;;;;4948891;28;20487;-34
2022/06/13 03:30:44;;;;;;;11.00;5.90;;;15.50;99.90;;;;;;4940010;29;20031;-33
2022/06/13 03:36:06;;;;;;;9.23;5.05;;;15.60;99.90;;;;;;4949951;28;20124;-34
2022/06/13 03:38:37;;;;;;;9.80;4.95;;;15.60;99.90;;;;;;4948715;28;20031;-33
2022/06/13 03:41:05;;;;;;;9.45;5.18;;;15.50;99.90;;;;;;4948907;28;20160;-34
2022/06/13 03:43:34;;;;;;;12.77;5.68;;;15.50;99.90;;;;;;4948808;28;20118;-35
2022/06/13 03:46:07;;;;;;;8.93;5.20;;;15.50;99.90;;;;;;4948767;29;20034;-34
2022/06/13 03:48:40;;;;;;;13.20;5.93;;;15.50;99.90;;;;;;4948178;28;20039;-35
2022/06/13 03:51:13;;;;;;;7.30;4.30;;;15.50;99.90;;;;;;4946838;29;20020;-34
2022/06/13 03:53:45;;;;;;;8.68;4.82;;;15.50;99.90;;;;;;4948655;29;20039;-34
2022/06/13 03:56:23;;;;;;;8.43;4.65;;;15.50;99.90;;;;;;4949162;28;20051;-34
2022/06/13 03:59:11;;;;;;;11.75;4.85;;;15.40;99.90;;;;;;4948629;28;20035;-35
2022/06/13 04:01:45;;;;;;;7.97;5.32;;;15.40;99.90;;;;;;4946593;28;20546;-35
2022/06/13 04:04:20;;;;;;;8.38;5.20;;;15.40;99.90;;;;;;4948794;28;20529;-34
2022/06/13 04:06:46;;;;;;;9.82;5.38;;;15.40;99.90;;;;;;4948489;29;20505;-34
2022/06/13 04:09:24;;;;;;;9.18;5.70;;;15.40;99.90;;;;;;4948377;28;20019;-34
2022/06/13 04:12:05;;;;;;;9.38;5.82;;;15.40;99.90;;;;;;4946518;29;20118;-34
2022/06/13 04:14:50;;;;;;;10.75;5.65;;;15.50;99.90;;;;;;4948105;29;20369;-34
2022/06/13 04:17:34;;;;;;;9.43;5.45;;;15.40;99.90;;;;;;4948575;29;20019;-36
2022/06/13 04:20:24;;;;;;;10.50;5.50;;;15.40;99.90;;;;;;4948998;29;20392;-34
2022/06/13 04:23:07;;;;;;;12.50;5.68;;;15.40;99.90;;;;;;4939956;29;20096;-34
2022/06/13 04:25:47;;;;;;;;;;;15.40;99.90;;;;;;4947940;28;20387;-33
2022/06/13 04:28:38;;;;;;;8.80;4.70;;;15.40;99.90;;;;;;4948623;28;19918;-34
2022/06/13 04:31:08;;;;;;;8.88;5.03;;;15.40;99.90;;;;;;4937930;29;20501;-34
2022/06/13 04:33:42;;;;;;;10.45;5.20;;;15.40;99.90;;;;;;4947797;28;20062;-34
2022/06/13 04:36:12;;;;;;;9.32;5.45;;;15.40;99.90;;;;;;4948505;29;20027;-35
2022/06/13 04:38:43;;;;;;;9.23;5.20;;;15.40;99.90;;;;;;4948294;28;20030;-35
2022/06/13 04:41:11;;;;;;;10.35;5.47;;;15.40;99.90;;;;;;4948137;28;20102;-34
2022/06/13 04:43:41;;;;;;;6.68;4.90;;;15.40;99.90;;;;;;4947352;28;20039;-36
2022/06/13 04:46:08;;;;;;;7.40;4.87;;;15.40;99.90;;;;;;4948174;29;20023;-35
2022/06/13 04:48:37;;;;;;;7.15;4.90;;;15.40;99.90;;;;;;4947114;28;20035;-34
2022/06/13 04:51:10;;;;;;;6.57;4.30;;;15.50;99.90;;;;;;4947632;28;20023;-33
2022/06/13 04:53:42;;;;;;;;;;;15.60;99.90;;;;;;4938036;29;20035;-34
2022/06/13 04:56:07;;;;;;;7.65;4.32;;;15.60;99.90;;;;;;4948537;28;19918;-33
2022/06/13 04:58:37;;;;;;;10.82;5.40;;;15.60;99.90;;;;;;4947211;28;20030;-36
2022/06/13 05:01:15;;;;;;;8.57;5.05;;;15.60;99.90;;;;;;4948419;28;20464;-35
2022/06/13 05:03:46;;;;;;;9.93;5.45;;;15.60;99.90;;;;;;4948298;28;20031;-36
2022/06/13 05:06:33;;;;;;;9.97;5.23;;;15.70;99.90;;;;;;4947667;28;20448;-34
2022/06/13 05:09:12;;;;;;;9.95;5.18;;;15.70;99.90;;;;;;4948031;29;20368;-34
2022/06/13 05:11:44;;;;;;;6.53;4.28;;;15.70;99.90;;;;;;4946995;28;20186;-35
2022/06/13 05:14:17;;;;;;;7.88;4.97;;;15.70;99.90;;;;;;4948534;29;20071;-35
2022/06/13 05:17:05;;;;;;;10.00;5.35;;;15.80;99.90;;;;;;4947282;28;20039;-34
2022/06/13 05:19:59;;;;;;;8.15;4.82;;;15.80;99.90;;;;;;4937361;29;20066;-34
2022/06/13 05:22:53;;;;;;;12.00;5.80;;;15.90;99.90;;;;;;4947011;28;20050;-35
2022/06/13 05:25:46;;;;;;;9.00;5.10;;;15.90;99.90;;;;;;4947201;28;20031;-34
2022/06/13 05:28:22;;;;;;;9.90;4.43;;;16.00;99.90;;;;;;4947543;29;20051;-36
2022/06/13 05:30:54;;;;;;;6.88;4.25;;;16.00;99.90;;;;;;4947397;29;20467;-37
2022/06/13 05:33:27;;;;;;;12.90;6.18;;;16.10;99.90;;;;;;4947009;28;20027;-33
2022/06/13 05:35:55;;;;;;;10.30;4.75;;;16.20;99.90;;;;;;4947765;29;20027;-34
2022/06/13 05:38:33;;;;;;;7.00;4.10;;;16.10;99.90;;;;;;4950432;28;20368;-34
2022/06/13 05:40:58;;;;;;;12.05;6.13;;;16.20;99.90;;;;;;4950834;28;20359;-35
2022/06/13 05:43:24;;;;;;;11.07;5.43;;;16.20;99.90;;;;;;4950611;29;20526;-33
2022/06/13 05:45:53;;;;;;;13.80;5.60;;;16.30;99.90;;;;;;4950884;29;20055;-34
2022/06/13 05:48:22;;;;;;;13.60;6.57;;;16.30;99.90;;;;;;4947928;29;20034;-33
2022/06/13 05:50:48;;;;;;;14.88;6.15;;;16.30;99.90;;;;;;4948342;29;20031;-35
2022/06/13 05:53:16;;;;;;;7.82;4.45;;;16.30;99.90;;;;;;4949213;28;20033;-34
2022/06/13 05:55:43;;;;;;;10.35;5.55;;;16.40;99.90;;;;;;4949041;28;20912;-34
2022/06/13 05:58:12;;;;;;;10.57;4.82;;;16.40;99.90;;;;;;4950171;28;20110;-34
2022/06/13 06:00:44;;;;;;;17.17;6.38;;;16.50;99.90;;;;;;4948624;28;20053;-35
2022/06/13 06:03:10;;;;;;;12.82;6.07;;;16.50;99.90;;;;;;4949568;28;20475;-34
2022/06/13 06:05:37;;;;;;;11.60;5.55;;;16.50;99.90;;;;;;4948906;29;20119;-35
2022/06/13 06:08:03;;;;;;;8.95;4.88;;;16.40;99.90;;;;;;4957073;28;20051;-34
2022/06/13 06:10:35;;;;;;;10.77;5.05;;;16.40;99.90;;;;;;4948514;28;20074;-33
2022/06/13 06:13:00;;;;;;;9.18;4.50;;;16.40;99.90;;;;;;4950032;28;20038;-34
2022/06/13 06:15:26;;;;;;;8.88;4.50;;;16.40;99.90;;;;;;4948753;28;20019;-34
2022/06/13 06:17:51;;;;;;;8.45;4.20;;;16.50;99.90;;;;;;4950196;29;20495;-35
2022/06/13 06:20:20;;;;;;;10.75;5.03;;;16.50;99.90;;;;;;4949934;28;20724;-34
2022/06/13 06:22:46;;;;;;;7.68;3.80;;;16.60;99.90;;;;;;4950072;28;20031;-35
2022/06/13 06:25:12;;;;;;;6.30;3.58;;;16.70;99.90;;;;;;4952493;28;20034;-35
2022/06/13 06:27:38;;;;;;;10.88;4.78;;;16.80;99.90;;;;;;4951261;28;20158;-34
2022/06/13 06:30:05;;;;;;;11.30;3.75;;;16.90;99.90;;;;;;4950881;28;20034;-34
2022/06/13 06:32:30;;;;;;;10.18;4.18;;;17.00;99.90;;;;;;4947463;28;20066;-34
2022/06/13 06:34:56;;;;;;;7.35;3.30;;;17.00;99.90;;;;;;4953657;28;20102;-34
2022/06/13 06:37:22;;;;;;;5.35;2.75;;;17.10;99.90;;;;;;4948091;29;20031;-34
2022/06/13 06:39:47;;;;;;;7.18;3.15;;;17.10;99.90;;;;;;4949503;28;20015;-34
2022/06/13 06:42:14;;;;;;;9.40;3.53;;;17.20;99.90;;;;;;4949357;29;20027;-33
2022/06/13 06:44:39;;;;;;;5.72;2.83;;;17.20;99.90;;;;;;4949245;29;20058;-34
2022/06/13 06:47:06;;;;;;;6.10;2.58;;;17.30;99.90;;;;;;4948830;29;20499;-34
2022/06/13 06:49:34;;;;;;;7.43;2.78;;;17.40;99.90;;;;;;4947706;28;20035;-34
2022/06/13 06:52:01;;;;;;;4.55;2.70;;;17.50;99.90;;;;;;4950657;28;20034;-33
2022/06/13 06:59:55;;;;;;;8.55;3.03;;;17.50;99.50;;;;;;4963117;28;20512;-34
2022/06/13 07:02:23;;;;;;;3.45;2.10;;;17.50;99.60;;;;;;4948595;28;20050;-34
2022/06/13 07:05:00;;;;;;;7.93;3.03;;;17.50;99.50;;;;;;4949482;28;20038;-34
2022/06/13 07:07:26;;;;;;;6.53;3.30;;;17.60;99.10;;;;;;4948179;28;20270;-34
2022/06/13 07:09:51;;;;;;;10.35;3.50;;;17.60;99.20;;;;;;4955930;28;20379;-34
2022/06/13 07:12:17;;;;;;;9.02;3.20;;;17.60;98.20;;;;;;4955955;28;20035;-35
2022/06/13 07:14:44;;;;;;;9.52;3.97;;;17.60;98.00;;;;;;4963447;28;20029;-35
2022/06/13 07:17:10;;;;;;;8.60;3.20;;;17.50;97.90;;;;;;4953618;28;20078;-34
2022/06/13 07:19:37;;;;;;;6.82;3.05;;;17.50;98.20;;;;;;4956389;28;20027;-36
2022/06/13 07:22:03;;;;;;;6.50;2.78;;;17.50;98.30;;;;;;4954895;28;20494;-34
2022/06/13 07:24:29;;;;;;;6.97;2.83;;;17.50;98.20;;;;;;4965117;28;20027;-34
2022/06/13 07:26:55;;;;;;;6.97;2.35;;;17.60;98.20;;;;;;4957640;28;20050;-34
2022/06/13 07:29:24;;;;;;;3.88;2.05;;;17.70;98.30;;;;;;4949163;28;20046;-35
2022/06/13 07:31:58;;;;;;;2.90;1.92;;;17.70;98.40;;;;;;4948377;29;20024;-33
2022/06/13 07:34:25;;;;;;;6.35;1.92;;;17.80;98.40;;;;;;4949018;28;20418;-34
2022/06/13 07:36:53;;;;;;;6.30;2.58;;;17.70;98.00;;;;;;4948674;29;20522;-34
2022/06/13 07:39:19;;;;;;;8.63;2.22;;;17.70;97.60;;;;;;4948123;28;20027;-34
2022/06/13 07:41:46;;;;;;;6.60;1.95;;;17.60;97.30;;;;;;4948386;28;20027;-34
2022/06/13 07:44:23;;;;;;;5.55;2.20;;;17.50;97.50;;;;;;4948974;29;20030;-35
2022/06/13 07:46:50;;;;;;;3.60;2.05;;;17.50;97.20;;;;;;4948168;28;20386;-34
2022/06/13 07:49:16;;;;;;;1.80;1.20;;;17.50;97.40;;;;;;4948673;28;20051;-34
2022/06/13 07:51:42;;;;;;;8.13;1.90;;;17.50;97.60;;;;;;4948459;29;20486;-35
2022/06/13 07:54:08;;;;;;;4.28;1.67;;;17.60;96.10;;;;;;4948043;28;20121;-35
2022/06/13 07:56:34;;;;;;;3.03;1.48;;;17.60;96.20;;;;;;4947719;28;20126;-34
2022/06/13 07:59:00;;;;;;;4.47;1.40;;;17.60;96.30;;;;;;4948678;29;20031;-34
2022/06/13 08:01:27;;;;;;;3.70;1.40;;;17.60;96.00;;;;;;4947857;28;20028;-35
2022/06/13 08:03:54;;;;;;;6.18;1.50;;;17.80;96.00;;;;;;4947823;28;20023;-34
2022/06/13 08:06:21;;;;;;;2.60;1.13;;;17.90;96.20;;;;;;4948659;28;20023;-34
2022/06/13 08:08:47;;;;;;;4.70;1.20;;;18.10;96.20;;;;;;4953142;28;20399;-34
2022/06/13 08:11:16;;;;;;;2.67;1.23;;;18.30;96.20;;;;;;4954695;28;20486;-34
2022/06/13 08:13:42;;;;;;;3.63;1.38;;;18.40;95.90;;;;;;4951658;28;20479;-34
2022/06/13 08:16:09;;;;;;;3.00;1.23;;;18.50;95.40;;;;;;4948299;29;20030;-34
2022/06/13 08:18:36;;;;;;;3.22;1.13;;;18.50;95.00;;;;;;4946715;29;20019;-34
2022/06/13 08:21:03;;;;;;;4.53;1.40;;;18.50;95.10;;;;;;4948144;29;20042;-34
2022/06/13 08:23:28;;;;;;;4.18;1.35;;;18.50;95.10;;;;;;4947142;28;20047;-34
2022/06/13 08:25:54;;;;;;;3.42;1.40;;;18.50;94.40;;;;;;4948106;29;20069;-34
2022/06/13 08:28:19;;;;;;;2.25;1.25;;;18.40;94.40;;;;;;4947317;29;20423;-35
2022/06/13 08:30:49;;;;;;;3.80;1.35;;;18.30;94.40;;;;;;4948041;28;20542;-34
2022/06/13 08:33:15;;;;;;;2.90;1.00;;;18.20;94.80;;;;;;4947142;28;20395;-35
2022/06/13 08:35:41;;;;;;;3.60;0.90;;;18.30;93.10;;;;;;4947794;28;20019;-35
2022/06/13 08:38:07;;;;;;;1.73;0.80;;;18.40;91.90;;;;;;4947580;29;20039;-35
2022/06/13 08:41:11;;;;;;;5.38;1.30;;;18.50;91.70;;;;;;4945959;28;20016;-36
2022/06/13 08:43:58;;;;;;;3.47;1.23;;;18.50;92.10;;;;;;4946755;29;20035;-34
2022/06/13 08:46:47;;;;;;;3.70;0.90;;;18.60;92.10;;;;;;4936916;29;20427;-35
2022/06/13 08:49:50;;;;;;;4.78;1.40;;;18.40;92.80;;;;;;4946723;28;20538;-35
2022/06/13 08:52:27;;;;;;;2.92;1.00;;;18.30;93.00;;;;;;4947382;28;20023;-35
2022/06/13 08:55:13;;;;;;;5.53;1.10;;;18.10;93.50;;;;;;4947120;28;20043;-34
2022/06/13 08:57:44;;;;;;;4.93;1.23;;;18.00;94.00;;;;;;4946958;28;20035;-35
2022/06/13 09:00:15;;;;;;;3.13;1.10;;;18.00;94.00;;;;;;4947544;29;20037;-34
2022/06/13 09:02:53;;;;;;;4.03;1.48;;;17.90;93.40;;;;;;4947655;28;20042;-36
2022/06/13 09:05:29;;;;;;;4.03;1.35;;;17.90;93.60;;;;;;4947203;28;20051;-35
2022/06/13 09:08:19;;;;;;;3.13;1.45;;;18.00;93.80;;;;;;4947580;28;20476;-35
2022/06/13 09:10:57;;;;;;;3.20;1.08;;;18.20;93.60;;;;;;4947355;29;20035;-35
2022/06/13 09:13:33;;;;;;;3.80;1.10;;;18.30;93.50;;;;;;4953707;28;20113;-36
2022/06/13 09:16:25;;;;;;;3.45;1.00;;;18.30;92.20;;;;;;4953683;29;20038;-35
2022/06/13 09:19:03;;;;;;;3.40;1.20;;;18.30;92.00;;;;;;4935140;29;20427;-35
2022/06/13 09:21:53;;;;;;;2.83;0.93;;;18.10;92.10;;;;;;4950280;28;20085;-34
2022/06/13 09:24:43;;;;;;;3.75;1.58;;;18.10;92.30;;;;;;4953667;29;20034;-42
2022/06/13 09:27:50;;;;;;;4.85;1.20;;;18.10;92.80;;;;;;4954119;28;20035;-35
2022/06/13 09:30:22;;;;;;;4.60;1.20;;;18.00;93.20;;;;;;4932008;29;20456;-34
2022/06/13 09:32:53;;;;;;;4.90;1.50;;;18.10;93.50;;;;;;4950388;28;20049;-35
2022/06/13 09:35:24;;;;;;;2.75;1.10;;;18.20;93.20;;;;;;4954272;28;20139;-34
2022/06/13 09:37:56;;;;;;;3.30;1.23;;;18.30;93.40;;;;;;4957188;28;20530;-33
2022/06/13 09:40:58;;;;;;;2.50;1.00;;;18.50;93.00;;;;;;4959345;28;20039;-34
2022/06/13 09:43:29;;;;;;;3.88;1.00;;;18.60;92.50;;;;;;4928878;28;20046;-34
2022/06/13 09:46:29;;;;;;;3.00;0.90;;;18.60;91.90;;;;;;4961069;28;20027;-36
2022/06/13 09:49:10;;;;;;;3.05;1.00;;;18.40;92.10;;;;;;4948161;28;20106;-34
2022/06/13 09:51:44;;;;;;;5.65;1.90;;;18.30;92.60;;;;;;4963078;28;20126;-34
2022/06/13 09:54:18;;;;;;;4.30;1.17;;;18.20;92.90;;;;;;4953124;29;20023;-34
2022/06/13 09:57:13;;;;;;;3.30;0.80;;;18.10;93.00;;;;;;4960595;28;20110;-35
2022/06/13 10:00:05;;;;;;;2.92;0.80;;;18.10;93.10;;;;;;4961583;28;20030;-33
2022/06/13 10:02:52;;;;;;;5.28;1.30;;;18.10;92.90;;;;;;4953519;28;20117;-34
2022/06/13 10:05:41;;;;;;;4.22;1.00;;;18.30;92.40;;;;;;4933994;29;20443;-34
2022/06/13 10:08:44;;;;;;;3.60;1.05;;;18.40;92.10;;;;;;4959531;28;20129;-34
2022/06/13 10:11:29;;;;;;;3.15;1.02;;;18.60;92.10;;;;;;4953248;29;20477;-35
2022/06/13 10:14:28;;;;;;;3.42;1.17;;;18.60;91.90;;;;;;4949836;29;20023;-36
2022/06/13 10:17:10;;;;;;;3.88;0.95;;;18.60;91.10;;;;;;4953266;28;20027;-34
2022/06/13 10:19:58;;;;;;;4.57;1.63;;;18.40;91.30;;;;;;4943561;29;20035;-34
2022/06/13 10:22:42;;;;;;;3.47;1.42;;;18.30;91.40;;;;;;4948532;28;20067;-33
2022/06/13 10:25:15;;;;;;;3.80;1.27;;;18.30;91.30;;;;;;4949821;29;20121;-34
2022/06/13 10:28:00;;;;;;;7.25;1.38;;;18.30;91.40;;;;;;4948884;29;20474;-34
2022/06/13 10:30:54;;;;;;;3.75;1.05;;;18.30;91.20;;;;;;4949382;29;20019;-34
2022/06/13 10:33:28;;;;;;;1.67;0.80;;;18.30;91.50;;;;;;4950170;28;20027;-35
2022/06/13 10:36:12;;;;;;;3.63;1.02;;;18.30;91.70;;;;;;4953462;28;20027;-34
2022/06/13 10:38:50;;;;;;;3.03;1.02;;;18.30;91.70;;;;;;4943526;29;20035;-35
2022/06/13 10:41:16;;;;;;;6.40;1.30;;;18.20;91.80;;;;;;4949627;29;20035;-35
2022/06/13 10:43:42;;;;;;;5.30;1.13;;;18.10;91.90;;;;;;4949153;29;20593;-33
2022/06/13 10:46:11;;;;;;;3.63;1.02;;;18.20;91.80;;;;;;4949802;28;20035;-35
2022/06/13 10:49:02;;;;;;;2.40;1.02;;;18.30;91.90;;;;;;4948109;29;20098;-34
2022/06/13 10:51:27;;;;;;;4.38;1.15;;;18.50;91.00;;;;;;4948283;28;20470;-34
2022/06/13 10:54:07;;;;;;;4.88;1.67;;;18.50;90.80;;;;;;4949860;29;20031;-34
2022/06/13 10:56:43;;;;;;;3.42;0.90;;;18.50;90.50;;;;;;4948600;28;20090;-35
2022/06/13 10:59:21;;;;;;;1.92;0.77;;;18.40;90.80;;;;;;4949272;28;20027;-35
2022/06/13 11:02:00;;;;;;;3.17;1.20;;;18.30;91.20;;;;;;4949645;29;20570;-35
2022/06/13 11:04:28;;;;;;;4.90;1.05;;;18.20;91.10;;;;;;4948706;28;20431;-35
2022/06/13 11:06:59;;;;;;;2.90;0.82;;;18.30;91.30;;;;;;4949214;28;20036;-35
2022/06/13 11:09:37;;;;;;;3.10;1.17;;;18.40;90.30;;;;;;4949184;29;20031;-35
2022/06/13 11:12:17;;;;;;;2.20;0.70;;;18.60;90.10;;;;;;4957354;28;20464;-35
2022/06/13 11:23:36;;;;;;;2.63;0.70;;;18.90;88.50;;;;;;4949290;29;20090;-34
2022/06/13 11:26:03;;;;;;;2.17;0.80;;;19.00;89.40;;;;;;4955854;28;20058;-35
2022/06/13 11:28:38;;;;;;;2.25;0.77;;;19.10;88.60;;;;;;4957392;28;20166;-35
2022/06/13 11:31:19;;;;;;;2.97;0.90;;;19.20;87.90;;;;;;4955920;28;20372;-34
2022/06/13 11:33:45;;;;;;;2.55;1.58;;;19.30;85.60;;;;;;4955175;28;20023;-35
2022/06/13 11:36:16;;;;;;;3.40;1.00;;;19.20;84.50;;;;;;4955443;28;20031;-36
2022/06/13 11:39:05;;;;;;;2.50;0.95;;;19.10;85.40;;;;;;4954699;28;20027;-33
2022/06/13 11:41:41;;;;;;;4.95;0.85;;;19.00;84.80;;;;;;4947841;29;20027;-38
2022/06/13 11:44:22;;;;;;;2.78;0.90;;;18.90;85.20;;;;;;4949224;28;20027;-34
2022/06/13 11:46:59;;;;;;;3.08;1.17;;;18.90;85.90;;;;;;4947914;28;20043;-35
2022/06/13 11:49:39;;;;;;;3.45;0.85;;;18.90;86.60;;;;;;4948168;28;20028;-34
2022/06/13 11:52:11;;;;;;;4.82;0.85;;;19.10;86.50;;;;;;4944964;29;20388;-34
2022/06/13 11:54:52;;;;;;;2.90;0.90;;;19.20;86.90;;;;;;4948386;29;20031;-34
2022/06/13 11:57:36;;;;;;;3.65;0.95;;;19.30;85.10;;;;;;4953044;28;20282;-34
2022/06/13 12:00:06;;;;;;;2.67;0.95;;;19.30;84.80;;;;;;4954505;28;20495;-34
2022/06/13 12:02:49;;;;;;;1.77;0.80;;;19.20;84.30;;;;;;4957676;28;20031;-34
2022/06/13 12:05:28;;;;;;;2.60;0.73;;;19.20;83.20;;;;;;4956641;28;20181;-34
2022/06/13 12:07:54;;;;;;;1.90;0.77;;;19.20;80.90;;;;;;4947980;28;20054;-34
2022/06/13 12:10:23;;;;;;;2.97;0.70;;;19.10;81.00;;;;;;4948119;29;20038;-35
2022/06/13 12:12:48;;;;;;;2.40;1.10;;;19.00;81.70;;;;;;4945332;29;20024;-35
2022/06/13 12:15:15;;;;;;;3.03;0.77;;;19.00;82.40;;;;;;4947974;28;20039;-34
2022/06/13 12:17:57;;;;;;;2.45;0.95;;;19.00;83.00;;;;;;4947453;28;20035;-34
2022/06/13 12:20:46;;;;;;;1.70;0.82;;;19.20;82.30;;;;;;4948139;28;20391;-34
2022/06/13 12:23:36;;;;;;;1.80;0.73;;;19.10;78.80;;;;;;4945334;29;20483;-35
2022/06/13 12:26:26;;;;;;;1.30;0.52;;;19.10;79.40;;;;;;4945344;29;20043;-35
2022/06/13 12:29:10;;;;;;;3.55;0.93;;;19.20;79.90;;;;;;4939102;29;20043;-32
2022/06/13 12:31:46;;;;;;;3.53;0.88;;;19.30;78.10;;;;;;4947225;28;20325;-35
2022/06/13 12:34:23;;;;;;;4.03;0.70;;;19.40;79.20;;;;;;4948141;29;20043;-36
2022/06/13 12:37:00;;;;;;;3.60;0.80;;;19.30;77.30;;;;;;4947994;29;20030;-35
2022/06/13 12:39:28;;;;;;;3.85;0.90;;;19.20;75.80;;;;;;4947353;29;20443;-34
2022/06/13 12:42:16;;;;;;;2.20;0.82;;;19.10;76.20;;;;;;4947697;29;20053;-34
2022/06/13 12:44:54;;;;;;;1.90;0.80;;;19.10;76.60;;;;;;4948111;29;20024;-34
2022/06/13 12:47:39;;;;;;;2.58;0.82;;;19.10;77.10;;;;;;4946435;29;20314;-35
2022/06/13 12:50:14;;;;;;;3.03;0.82;;;19.20;74.90;;;;;;4947785;28;20064;-34
2022/06/13 12:53:17;;;;;;;2.85;0.98;;;19.20;75.70;;;;;;4947583;28;20066;-34
2022/06/13 12:56:20;;;;;;;3.38;0.73;;;19.30;79.10;;;;;;4946485;29;20581;-34
2022/06/13 12:59:24;;;;;;;9.48;4.85;;;19.30;79.50;;;;;;4946369;28;20030;-33
2022/06/13 13:02:01;;;;;;;3.83;1.20;;;19.30;80.30;;;;;;4947694;29;20034;-34
2022/06/13 13:04:43;;;;;;;4.25;1.40;;;19.30;79.70;;;;;;4946386;29;20023;-34
2022/06/13 13:07:14;;;;;;;5.17;1.20;;;19.20;80.50;;;;;;4947041;28;20474;-34
2022/06/13 13:10:03;;;;;;;3.22;1.20;;;19.10;80.70;;;;;;4946853;29;20034;-34
2022/06/13 13:13:13;;;;;;;3.20;1.02;;;19.10;81.20;;;;;;4943614;29;20171;-35
2022/06/13 13:16:02;;;;;;;6.50;1.27;;;19.20;81.80;;;;;;4906355;29;20429;-36
2022/06/13 13:18:38;;;;;;;2.28;0.95;;;19.30;80.30;;;;;;4905478;29;20020;-34
2022/06/13 13:21:19;;;;;;;5.72;1.58;;;19.40;80.20;;;;;;4935453;29;20122;-34
2022/06/13 13:23:58;;;;;;;7.13;1.23;;;19.50;79.10;;;;;;4946662;28;20027;-35
2022/06/13 13:26:34;;;;;;;4.45;1.00;;;19.50;78.80;;;;;;4947397;28;20037;-34
2022/06/13 13:29:18;;;;;;;2.85;0.93;;;19.60;79.30;;;;;;4946929;29;20039;-35
2022/06/13 13:32:24;;;;;;;6.13;1.40;;;19.70;80.00;;;;;;4946589;29;20034;-35
2022/06/13 13:35:19;;;;;;;3.65;1.10;;;19.80;78.60;;;;;;4939061;29;20047;-35
2022/06/13 13:38:09;;;;;;;2.97;1.00;;;19.70;78.40;;;;;;4927571;29;20027;-34
2022/06/13 13:41:06;;;;;;;2.35;0.68;;;19.60;78.50;;;;;;4945988;29;20031;-35
2022/06/13 13:44:00;;;;;;;3.72;1.02;;;19.60;79.20;;;;;;4947133;28;20390;-33
2022/06/13 13:46:43;;;;;;;3.42;1.00;;;19.50;79.70;;;;;;4936230;29;20023;-34
2022/06/13 13:49:22;;;;;;;3.15;0.80;;;19.60;79.70;;;;;;4947071;28;20045;-34